Time;durP1;ratioP1;P1;durP2;ratioP2;P2;SDS_P1;SDS_P2;PMS_P1;PMS_P2;Temp;Humidity;BMP_temperature;BMP_pressure;BME280_temperature;BME280_humidity;BME280_pressure;Samples;Min_cycle;Max_cycle;Signal;HPM_P1;HPM_P2
2022/06/09 00:00:51;;;;;;;0.00;0.00;;;14.90;99.90;;;;;;5053823;28;20131;-81
2022/06/09 00:03:28;;;;;;;0.00;0.00;;;14.80;99.90;;;;;;5053652;28;20171;-81
2022/06/09 00:05:54;;;;;;;0.03;0.00;;;14.80;99.90;;;;;;5036737;28;20057;-80
2022/06/09 00:08:20;;;;;;;2.75;0.45;;;14.80;99.90;;;;;;5036752;28;20523;-81
2022/06/09 00:10:58;;;;;;;0.13;0.00;;;14.80;99.90;;;;;;5036768;28;20060;-80
2022/06/09 00:13:24;;;;;;;0.65;0.50;;;14.80;99.90;;;;;;5036980;28;20057;-81
2022/06/09 00:15:50;;;;;;;0.70;0.08;;;14.70;99.90;;;;;;5036952;28;20507;-81
2022/06/09 00:18:16;;;;;;;0.17;0.17;;;14.70;99.90;;;;;;5052779;28;20048;-81
2022/06/09 00:20:41;;;;;;;0.10;0.10;;;14.60;99.90;;;;;;5052829;28;20048;-80
2022/06/09 00:23:07;;;;;;;0.00;0.00;;;14.70;99.90;;;;;;5051982;28;20053;-81
2022/06/09 00:25:35;;;;;;;0.00;0.00;;;14.60;99.90;;;;;;5036611;28;20094;-81
2022/06/09 00:28:02;;;;;;;0.00;0.00;;;14.60;99.90;;;;;;5053383;28;20053;-81
2022/06/09 00:30:28;;;;;;;0.45;0.28;;;14.60;99.90;;;;;;5053009;28;20508;-81
2022/06/09 00:32:53;;;;;;;0.00;0.00;;;14.60;99.90;;;;;;5053264;28;20033;-81
2022/06/09 00:35:19;;;;;;;0.20;0.10;;;14.50;99.90;;;;;;5053256;28;20045;-81
2022/06/09 00:37:45;;;;;;;0.00;0.00;;;14.50;99.90;;;;;;5053707;28;20045;-81
2022/06/09 00:40:13;;;;;;;1.85;0.25;;;14.50;99.90;;;;;;5053202;28;20504;-81
2022/06/09 00:42:39;;;;;;;0.00;0.00;;;14.40;99.90;;;;;;5053112;28;20537;-81
2022/06/09 00:45:43;;;;;;;0.00;0.00;;;14.50;99.90;;;;;;5036276;28;20151;-81
2022/06/09 00:48:34;;;;;;;2.05;0.50;;;14.40;99.90;;;;;;5035577;28;20508;-80
2022/06/09 00:51:22;;;;;;;1.85;0.30;;;14.40;99.90;;;;;;5053458;28;20059;-80
2022/06/09 00:53:52;;;;;;;0.25;0.25;;;14.30;99.90;;;;;;5036418;28;20132;-80
2022/06/09 00:56:18;;;;;;;0.10;0.10;;;14.30;99.90;;;;;;5052878;28;20062;-81
2022/06/09 00:58:48;;;;;;;0.00;0.00;;;14.30;99.90;;;;;;5052742;28;20044;-81
2022/06/09 01:01:15;;;;;;;0.10;0.10;;;14.30;99.90;;;;;;5036190;28;20061;-81
2022/06/09 01:03:54;;;;;;;0.10;0.10;;;14.20;99.90;;;;;;5052565;28;20481;-81
2022/06/09 01:06:23;;;;;;;0.00;0.00;;;14.10;99.90;;;;;;5035988;28;20057;-81
2022/06/09 01:09:13;;;;;;;0.25;0.25;;;14.20;99.90;;;;;;5052729;28;20052;-81
2022/06/09 01:11:40;;;;;;;0.38;0.20;;;14.20;99.90;;;;;;5036466;28;20053;-81
2022/06/09 01:14:07;;;;;;;0.30;0.20;;;14.10;99.90;;;;;;5036269;28;20056;-81
2022/06/09 01:17:15;;;;;;;0.35;0.20;;;14.10;99.90;;;;;;5036132;28;20064;-81
2022/06/09 01:19:48;;;;;;;0.00;0.00;;;14.00;99.90;;;;;;5052392;28;20481;-81
2022/06/09 01:22:40;;;;;;;0.20;0.20;;;14.00;99.90;;;;;;5052900;28;20425;-81
2022/06/09 01:25:14;;;;;;;0.00;0.00;;;14.00;99.90;;;;;;4995892;28;20053;-80
2022/06/09 01:28:03;;;;;;;0.05;0.00;;;14.00;99.90;;;;;;4979517;28;20061;-80
2022/06/09 01:31:08;;;;;;;0.00;0.00;;;14.00;99.90;;;;;;4995472;28;20375;-81
2022/06/09 01:33:48;;;;;;;0.20;0.10;;;14.00;99.90;;;;;;4937669;29;20142;-81
2022/06/09 01:36:32;;;;;;;8.48;1.08;;;13.90;99.90;;;;;;4937515;28;20055;-81
2022/06/09 01:38:58;;;;;;;0.00;0.00;;;13.90;99.90;;;;;;4925516;29;20527;-80
2022/06/09 01:41:25;;;;;;;0.00;0.00;;;13.90;99.90;;;;;;4925593;29;20055;-80
2022/06/09 01:43:54;;;;;;;0.00;0.00;;;13.90;99.90;;;;;;4941393;29;20447;-80
2022/06/09 01:46:30;;;;;;;0.00;0.00;;;13.80;99.90;;;;;;4941376;29;20059;-80
2022/06/09 01:49:04;;;;;;;0.00;0.00;;;13.80;99.90;;;;;;4925721;29;20087;-80
2022/06/09 01:51:34;;;;;;;0.08;0.00;;;13.80;99.90;;;;;;4941550;29;20110;-80
2022/06/09 01:54:23;;;;;;;0.10;0.10;;;13.70;99.90;;;;;;4941217;29;20130;-80
2022/06/09 01:56:53;;;;;;;0.10;0.05;;;13.70;99.90;;;;;;4941049;29;20411;-80
2022/06/09 01:59:23;;;;;;;0.43;0.00;;;13.70;99.90;;;;;;4941339;28;20051;-81
2022/06/09 02:01:55;;;;;;;0.00;0.00;;;13.60;99.90;;;;;;4943344;28;20054;-80
2022/06/09 02:04:32;;;;;;;0.00;0.00;;;13.50;99.90;;;;;;4979561;28;20065;-81
2022/06/09 02:07:01;;;;;;;0.20;0.10;;;13.50;99.90;;;;;;4979550;28;20064;-81
2022/06/09 02:09:30;;;;;;;0.00;0.00;;;13.50;99.90;;;;;;5004590;28;20535;-80
2022/06/09 02:12:00;;;;;;;0.20;0.20;;;13.50;99.90;;;;;;5056022;28;20088;-80
2022/06/09 02:14:28;;;;;;;0.00;0.00;;;13.50;99.90;;;;;;5056146;28;20040;-81
2022/06/09 02:16:56;;;;;;;0.43;0.43;;;13.40;99.90;;;;;;5039741;28;20082;-80
2022/06/09 02:19:23;;;;;;;1.10;0.20;;;13.50;99.90;;;;;;5055814;28;20052;-80
2022/06/09 02:21:49;;;;;;;0.00;0.00;;;13.50;99.90;;;;;;5038940;28;20049;-80
2022/06/09 02:24:15;;;;;;;0.20;0.20;;;13.50;99.90;;;;;;5055366;28;20049;-80
2022/06/09 02:26:40;;;;;;;0.10;0.10;;;13.40;99.90;;;;;;5039174;28;20055;-80
2022/06/09 02:29:06;;;;;;;0.00;0.00;;;13.50;99.90;;;;;;5055817;28;20103;-81
2022/06/09 02:31:32;;;;;;;0.00;0.00;;;13.50;99.90;;;;;;5055359;28;20057;-80
2022/06/09 02:33:58;;;;;;;0.63;0.38;;;13.40;99.90;;;;;;5055464;28;20033;-80
2022/06/09 02:36:24;;;;;;;0.30;0.17;;;13.50;99.90;;;;;;5038778;28;20045;-80
2022/06/09 02:38:50;;;;;;;0.10;0.10;;;13.50;99.90;;;;;;5055096;28;20075;-81
2022/06/09 02:41:16;;;;;;;0.10;0.05;;;13.40;99.90;;;;;;5055334;28;20049;-80
2022/06/09 02:43:42;;;;;;;0.52;0.35;;;13.40;99.90;;;;;;5038710;28;20132;-80
2022/06/09 02:46:08;;;;;;;0.10;0.10;;;13.40;99.90;;;;;;5055274;28;20041;-80
2022/06/09 02:48:34;;;;;;;0.00;0.00;;;13.40;99.90;;;;;;5054051;28;20499;-80
2022/06/09 02:51:22;;;;;;;0.00;0.00;;;13.30;99.90;;;;;;5055129;28;20413;-80
2022/06/09 02:53:48;;;;;;;0.10;0.10;;;13.40;99.90;;;;;;5039151;28;20071;-80
2022/06/09 02:56:14;;;;;;;0.00;0.00;;;13.30;99.90;;;;;;5055140;28;20474;-80
2022/06/09 02:58:39;;;;;;;0.00;0.00;;;13.30;99.90;;;;;;5055250;28;20049;-81
2022/06/09 03:01:05;;;;;;;0.00;0.00;;;13.30;99.90;;;;;;5038657;28;20065;-80
2022/06/09 03:03:31;;;;;;;1.27;0.80;;;13.30;99.90;;;;;;5054930;28;20048;-80
2022/06/09 03:05:57;;;;;;;1.75;0.00;;;13.30;99.90;;;;;;5054318;28;20135;-80
2022/06/09 03:08:22;;;;;;;0.25;0.25;;;13.30;99.90;;;;;;5038210;28;20069;-80
2022/06/09 03:10:48;;;;;;;2.00;0.90;;;13.30;99.90;;;;;;5054748;28;20045;-80
2022/06/09 03:13:14;;;;;;;0.70;0.35;;;13.20;99.90;;;;;;5038033;28;20063;-80
2022/06/09 03:15:39;;;;;;;1.17;0.75;;;13.10;99.90;;;;;;5054782;28;20055;-80
2022/06/09 03:18:05;;;;;;;0.00;0.00;;;13.20;99.90;;;;;;5037995;28;20128;-80
2022/06/09 03:20:31;;;;;;;0.20;0.20;;;13.20;99.90;;;;;;5054593;28;20045;-80
2022/06/09 03:22:57;;;;;;;1.20;0.00;;;13.10;99.90;;;;;;5038090;28;20044;-81
2022/06/09 03:25:23;;;;;;;0.00;0.00;;;13.10;99.90;;;;;;5054707;28;20131;-81
2022/06/09 03:27:49;;;;;;;3.03;0.65;;;13.10;99.90;;;;;;5054403;28;20083;-81
2022/06/09 03:30:16;;;;;;;0.00;0.00;;;13.10;99.90;;;;;;5054671;28;20444;-80
2022/06/09 03:32:42;;;;;;;0.00;0.00;;;13.10;99.90;;;;;;5037583;28;20133;-80
2022/06/09 03:35:09;;;;;;;0.00;0.00;;;13.10;99.90;;;;;;5055157;28;20081;-81
2022/06/09 03:37:35;;;;;;;0.00;0.00;;;13.20;99.90;;;;;;5054463;28;20549;-80
2022/06/09 03:40:02;;;;;;;0.35;0.35;;;13.20;99.90;;;;;;5054238;28;20077;-81
2022/06/09 03:42:28;;;;;;;2.45;0.30;;;13.20;99.90;;;;;;5037259;28;20550;-80
2022/06/09 03:44:54;;;;;;;0.00;0.00;;;13.20;99.90;;;;;;5054340;28;20135;-81
2022/06/09 03:47:19;;;;;;;0.85;0.25;;;13.20;99.90;;;;;;5054045;28;20057;-80
2022/06/09 03:49:45;;;;;;;0.10;0.10;;;13.20;99.90;;;;;;5053842;28;20481;-81
2022/06/09 03:52:11;;;;;;;0.10;0.10;;;13.20;99.90;;;;;;5054066;28;20499;-80
2022/06/09 03:54:37;;;;;;;0.00;0.00;;;13.20;99.90;;;;;;5053873;28;20583;-80
2022/06/09 03:57:03;;;;;;;0.10;0.00;;;13.30;99.90;;;;;;5054214;28;20358;-81
2022/06/09 03:59:29;;;;;;;0.00;0.00;;;13.30;99.90;;;;;;5053638;28;20059;-80
2022/06/09 04:01:54;;;;;;;0.10;0.08;;;13.30;99.90;;;;;;5036882;28;20490;-81
2022/06/09 04:04:21;;;;;;;6.13;0.68;;;13.30;99.90;;;;;;5053483;28;20049;-80
2022/06/09 04:06:47;;;;;;;2.17;0.20;;;13.30;99.90;;;;;;5037092;28;20060;-81
2022/06/09 04:09:13;;;;;;;0.10;0.00;;;13.30;99.90;;;;;;5036831;28;20400;-81
2022/06/09 04:11:38;;;;;;;0.32;0.20;;;13.30;99.90;;;;;;5053755;28;20095;-80
2022/06/09 04:14:04;;;;;;;0.65;0.00;;;13.30;99.90;;;;;;5037079;28;20139;-81
2022/06/09 04:16:32;;;;;;;0.00;0.00;;;13.40;99.90;;;;;;5053045;28;20092;-80
2022/06/09 04:19:00;;;;;;;0.00;0.00;;;13.30;99.90;;;;;;5037024;28;20045;-80
2022/06/09 04:21:28;;;;;;;0.70;0.35;;;13.40;99.90;;;;;;5037098;28;20135;-80
2022/06/09 04:23:55;;;;;;;0.00;0.00;;;13.40;99.90;;;;;;5036877;28;20084;-80
2022/06/09 04:26:24;;;;;;;0.35;0.30;;;13.40;99.90;;;;;;5053159;28;20489;-80
2022/06/09 04:28:50;;;;;;;0.32;0.25;;;13.40;99.90;;;;;;5036661;28;20131;-81
2022/06/09 04:31:16;;;;;;;5.05;0.65;;;13.40;99.90;;;;;;5053001;28;20573;-80
2022/06/09 04:33:42;;;;;;;0.03;0.03;;;13.40;99.90;;;;;;5053278;28;20080;-80
2022/06/09 04:36:09;;;;;;;0.00;0.00;;;13.50;99.90;;;;;;5053391;28;20066;-80
2022/06/09 04:38:36;;;;;;;0.20;0.00;;;13.50;99.90;;;;;;5036630;28;20049;-81
2022/06/09 04:41:09;;;;;;;0.00;0.00;;;13.60;99.90;;;;;;5053336;28;20132;-80
2022/06/09 04:43:36;;;;;;;0.20;0.10;;;13.70;99.90;;;;;;5036302;28;20045;-81
2022/06/09 04:46:03;;;;;;;0.35;0.35;;;13.70;99.90;;;;;;5052656;28;20056;-81
2022/06/09 04:48:28;;;;;;;0.10;0.08;;;13.80;99.90;;;;;;5036414;28;20045;-81
2022/06/09 04:50:54;;;;;;;0.05;0.05;;;13.80;99.90;;;;;;5053070;28;20037;-81
2022/06/09 04:53:19;;;;;;;0.10;0.10;;;13.90;99.90;;;;;;5036234;28;20071;-81
2022/06/09 04:55:45;;;;;;;0.00;0.00;;;14.00;99.90;;;;;;5036491;28;20049;-81
2022/06/09 04:58:11;;;;;;;0.25;0.20;;;14.00;99.90;;;;;;5052696;28;20055;-80
2022/06/09 05:00:36;;;;;;;0.00;0.00;;;14.10;99.90;;;;;;5052920;28;20076;-81
2022/06/09 05:03:03;;;;;;;0.05;0.05;;;14.10;99.90;;;;;;5052460;28;20056;-81
2022/06/09 05:05:34;;;;;;;0.00;0.00;;;14.20;99.90;;;;;;5051974;28;20539;-81
2022/06/09 05:08:00;;;;;;;0.00;0.00;;;14.20;99.90;;;;;;5052128;28;20053;-81
2022/06/09 05:10:27;;;;;;;0.00;0.00;;;14.20;99.90;;;;;;5052573;28;20045;-81
2022/06/09 05:12:54;;;;;;;0.00;0.00;;;14.20;99.90;;;;;;5035420;28;20096;-81
2022/06/09 05:15:20;;;;;;;0.00;0.00;;;14.20;99.90;;;;;;5053343;28;20123;-81
2022/06/09 05:17:47;;;;;;;0.20;0.20;;;14.10;99.90;;;;;;5052665;28;20057;-81
2022/06/09 05:20:15;;;;;;;0.00;0.00;;;14.10;99.90;;;;;;5052738;28;20040;-81
2022/06/09 05:22:41;;;;;;;0.25;0.10;;;14.10;99.90;;;;;;5052748;28;20041;-81
2022/06/09 05:25:08;;;;;;;0.00;0.00;;;14.10;99.90;;;;;;5052652;28;20133;-81
2022/06/09 05:27:34;;;;;;;0.47;0.20;;;14.10;99.90;;;;;;5035999;28;20135;-81
2022/06/09 05:30:00;;;;;;;0.08;0.08;;;14.20;99.90;;;;;;5052608;28;20099;-81
2022/06/09 05:32:26;;;;;;;0.00;0.00;;;14.20;99.90;;;;;;5035948;28;20053;-81
2022/06/09 05:34:52;;;;;;;0.25;0.08;;;14.30;99.90;;;;;;5036093;28;20457;-81
2022/06/09 05:37:18;;;;;;;0.75;0.60;;;14.30;99.90;;;;;;5052598;28;20091;-81
2022/06/09 05:45:13;;;;;;;0.00;0.00;;;14.50;99.90;;;;;;5052827;28;20144;-81
2022/06/09 05:47:39;;;;;;;1.20;0.55;;;14.50;99.90;;;;;;5052422;28;20056;-80
2022/06/09 05:50:06;;;;;;;0.40;0.13;;;14.60;99.90;;;;;;5039567;28;20040;-81
2022/06/09 05:52:33;;;;;;;0.00;0.00;;;14.60;99.90;;;;;;5038280;28;20067;-81
2022/06/09 05:54:58;;;;;;;1.67;0.25;;;14.70;99.90;;;;;;5052263;28;20136;-81
2022/06/09 05:57:26;;;;;;;0.10;0.00;;;14.70;99.90;;;;;;5052760;28;20472;-80
2022/06/09 05:59:52;;;;;;;0.57;0.20;;;14.70;99.90;;;;;;5052063;28;20114;-81
2022/06/09 06:02:21;;;;;;;0.00;0.00;;;14.80;99.90;;;;;;5052088;28;20048;-81
2022/06/09 06:04:47;;;;;;;0.00;0.00;;;14.80;99.90;;;;;;5035323;28;20057;-81
2022/06/09 06:07:13;;;;;;;0.00;0.00;;;14.90;99.90;;;;;;5052224;28;20048;-83
2022/06/09 06:09:39;;;;;;;0.05;0.03;;;14.90;99.90;;;;;;5061577;28;20131;-81
2022/06/09 06:12:06;;;;;;;0.00;0.00;;;15.00;99.90;;;;;;5045404;28;20052;-81
2022/06/09 06:14:31;;;;;;;11.70;0.68;;;15.00;99.90;;;;;;5060546;28;20128;-81
2022/06/09 06:16:58;;;;;;;0.00;0.00;;;15.00;99.90;;;;;;5059821;28;20111;-80
2022/06/09 06:19:24;;;;;;;1.88;0.10;;;15.00;99.90;;;;;;5060038;28;20399;-80
2022/06/09 06:21:51;;;;;;;0.20;0.13;;;15.10;99.90;;;;;;5062151;28;20049;-80
2022/06/09 06:24:19;;;;;;;0.05;0.03;;;15.00;99.90;;;;;;5070328;28;20051;-81
2022/06/09 06:26:45;;;;;;;0.15;0.15;;;15.10;99.90;;;;;;5073359;28;20044;-80
2022/06/09 06:29:21;;;;;;;0.57;0.30;;;15.10;99.90;;;;;;5070176;28;20052;-81
2022/06/09 06:31:48;;;;;;;0.00;0.00;;;15.20;99.90;;;;;;5038873;28;20045;-81
2022/06/09 06:34:14;;;;;;;0.00;0.00;;;15.30;99.90;;;;;;5055478;28;20048;-81
2022/06/09 06:36:40;;;;;;;1.38;0.55;;;15.30;99.90;;;;;;5055751;28;20148;-81
2022/06/09 06:39:05;;;;;;;0.43;0.10;;;15.50;99.90;;;;;;5055540;28;20041;-81
2022/06/09 06:41:31;;;;;;;0.00;0.00;;;15.50;99.90;;;;;;5056130;28;20427;-82
2022/06/09 06:43:57;;;;;;;0.00;0.00;;;15.60;99.90;;;;;;5055608;28;20101;-81
2022/06/09 06:46:23;;;;;;;0.05;0.00;;;15.60;99.90;;;;;;5055141;28;20041;-81
2022/06/09 06:48:49;;;;;;;0.20;0.05;;;15.60;99.90;;;;;;5054888;28;20041;-81
2022/06/09 06:51:15;;;;;;;0.00;0.00;;;15.60;99.90;;;;;;5055890;28;20048;-82
2022/06/09 06:53:41;;;;;;;0.30;0.10;;;15.60;99.90;;;;;;5055133;28;20055;-81
2022/06/09 06:56:08;;;;;;;0.30;0.08;;;15.60;99.90;;;;;;5054961;28;20481;-81
2022/06/09 06:58:34;;;;;;;0.03;0.00;;;15.50;99.90;;;;;;5055195;28;20052;-81
2022/06/09 07:01:01;;;;;;;0.00;0.00;;;15.60;99.90;;;;;;5054863;28;20139;-81
2022/06/09 07:03:28;;;;;;;2.67;0.32;;;15.70;99.90;;;;;;5055708;28;20393;-81
2022/06/09 07:05:54;;;;;;;0.43;0.43;;;15.70;99.90;;;;;;5054179;28;20512;-81
2022/06/09 07:08:19;;;;;;;0.65;0.38;;;15.80;99.90;;;;;;5038107;28;20115;-81
2022/06/09 07:10:46;;;;;;;0.00;0.00;;;15.90;99.90;;;;;;5055210;28;20045;-82
2022/06/09 07:13:12;;;;;;;0.00;0.00;;;16.10;99.90;;;;;;5054398;28;20159;-83
2022/06/09 07:15:38;;;;;;;0.00;0.00;;;16.20;99.90;;;;;;5054600;28;20123;-82
2022/06/09 07:18:04;;;;;;;0.10;0.10;;;16.40;99.90;;;;;;5054701;28;20477;-82
2022/06/09 07:20:30;;;;;;;0.00;0.00;;;16.50;99.90;;;;;;5054462;28;20049;-82
2022/06/09 07:22:56;;;;;;;0.00;0.00;;;16.40;99.90;;;;;;5055140;28;20049;-82
2022/06/09 07:25:25;;;;;;;0.00;0.00;;;16.40;99.90;;;;;;5037944;28;20076;-81
2022/06/09 07:27:53;;;;;;;0.00;0.00;;;16.40;99.90;;;;;;5054150;28;20140;-82
2022/06/09 07:30:21;;;;;;;0.00;0.00;;;16.60;99.90;;;;;;5054112;28;20573;-81
2022/06/09 07:32:47;;;;;;;0.03;0.03;;;16.80;99.90;;;;;;5054429;28;20060;-82
2022/06/09 07:35:20;;;;;;;0.60;0.20;;;16.90;99.90;;;;;;5053802;28;20460;-82
2022/06/09 07:37:46;;;;;;;0.00;0.00;;;17.00;99.90;;;;;;5054341;28;20085;-82
2022/06/09 07:40:12;;;;;;;0.00;0.00;;;17.20;99.90;;;;;;5054369;28;20389;-82
2022/06/09 07:42:39;;;;;;;0.20;0.20;;;17.20;99.90;;;;;;5037482;28;20053;-82
2022/06/09 07:45:06;;;;;;;0.03;0.03;;;17.30;99.90;;;;;;5053892;28;20091;-82
2022/06/09 07:47:32;;;;;;;0.00;0.00;;;17.40;99.90;;;;;;5054051;28;20071;-81
2022/06/09 07:49:58;;;;;;;0.40;0.20;;;17.50;99.90;;;;;;5053731;28;20044;-82
2022/06/09 07:52:24;;;;;;;0.00;0.00;;;17.40;99.90;;;;;;5053920;28;20045;-82
2022/06/09 07:54:49;;;;;;;0.00;0.00;;;17.50;99.90;;;;;;5053862;28;20037;-82
2022/06/09 07:57:15;;;;;;;0.30;0.30;;;17.60;99.90;;;;;;5053937;28;20079;-82
2022/06/09 07:59:41;;;;;;;0.10;0.10;;;17.60;99.90;;;;;;5053410;28;20061;-82
2022/06/09 08:02:07;;;;;;;0.15;0.15;;;17.60;99.90;;;;;;5053870;28;20049;-81
2022/06/09 08:04:33;;;;;;;0.00;0.00;;;17.60;99.90;;;;;;5053656;28;20084;-81
2022/06/09 08:06:59;;;;;;;0.00;0.00;;;17.70;99.90;;;;;;5053881;28;20099;-81
2022/06/09 08:09:25;;;;;;;0.00;0.00;;;17.80;99.90;;;;;;5053509;28;20045;-81
2022/06/09 08:11:51;;;;;;;0.00;0.00;;;18.10;99.90;;;;;;5053530;28;20556;-81
2022/06/09 08:14:17;;;;;;;0.00;0.00;;;18.20;99.90;;;;;;5053685;28;20063;-80
2022/06/09 08:16:43;;;;;;;0.00;0.00;;;18.30;99.90;;;;;;5053539;28;20124;-81
2022/06/09 08:19:09;;;;;;;0.17;0.05;;;18.40;99.90;;;;;;5053958;28;20064;-81
2022/06/09 08:21:35;;;;;;;0.00;0.00;;;18.50;99.90;;;;;;5053463;28;20396;-81
2022/06/09 08:24:01;;;;;;;0.47;0.00;;;18.40;99.90;;;;;;5036826;28;20054;-81
2022/06/09 08:26:26;;;;;;;0.00;0.00;;;18.30;99.90;;;;;;5053404;28;20044;-81
2022/06/09 08:28:52;;;;;;;0.00;0.00;;;18.30;99.90;;;;;;5053148;28;20048;-81
2022/06/09 08:31:18;;;;;;;0.00;0.00;;;18.40;99.90;;;;;;5053292;28;20089;-81
2022/06/09 08:33:44;;;;;;;0.00;0.00;;;18.50;99.90;;;;;;5053264;28;20044;-81
2022/06/09 08:36:10;;;;;;;0.00;0.00;;;18.70;99.90;;;;;;5053156;28;20053;-81
2022/06/09 08:38:36;;;;;;;0.00;0.00;;;18.60;99.90;;;;;;5053238;28;20045;-81
2022/06/09 08:41:09;;;;;;;0.85;0.38;;;18.50;99.90;;;;;;5053092;28;20048;-81
2022/06/09 08:43:47;;;;;;;0.00;0.00;;;18.40;99.90;;;;;;5053383;28;20052;-81
2022/06/09 08:46:19;;;;;;;0.00;0.00;;;18.40;99.90;;;;;;5053568;28;20059;-81
2022/06/09 08:48:46;;;;;;;0.03;0.00;;;18.40;99.90;;;;;;5052877;28;20041;-81
2022/06/09 08:51:19;;;;;;;0.00;0.00;;;18.50;99.90;;;;;;5053139;28;20097;-81
2022/06/09 08:53:58;;;;;;;0.00;0.00;;;18.60;99.90;;;;;;5052939;28;20049;-81
2022/06/09 08:56:30;;;;;;;0.52;0.22;;;18.70;99.90;;;;;;5052870;28;20504;-81
2022/06/09 08:59:01;;;;;;;0.20;0.10;;;18.90;99.90;;;;;;5052762;28;20072;-81
2022/06/09 09:01:48;;;;;;;0.00;0.00;;;19.10;99.90;;;;;;5053108;28;20134;-81
2022/06/09 09:04:19;;;;;;;0.00;0.00;;;19.30;99.90;;;;;;5052877;28;20052;-81
2022/06/09 09:07:08;;;;;;;0.10;0.10;;;19.40;99.90;;;;;;5036382;28;20057;-81
2022/06/09 09:09:35;;;;;;;0.00;0.00;;;19.50;99.90;;;;;;5052683;28;20048;-81
2022/06/09 09:12:32;;;;;;;0.00;0.00;;;19.70;99.90;;;;;;5052666;28;20044;-80
2022/06/09 09:15:16;;;;;;;0.00;0.00;;;19.80;99.90;;;;;;5036646;28;20370;-81
2022/06/09 09:18:15;;;;;;;0.00;0.00;;;19.90;99.90;;;;;;5053050;28;20441;-81
2022/06/09 09:21:15;;;;;;;0.00;0.00;;;20.10;99.90;;;;;;5036057;28;20052;-81
2022/06/09 09:24:06;;;;;;;0.00;0.00;;;20.00;99.90;;;;;;5053067;28;20080;-81
2022/06/09 09:26:40;;;;;;;0.00;0.00;;;20.00;99.90;;;;;;5052655;28;20088;-81
2022/06/09 09:29:30;;;;;;;0.00;0.00;;;19.90;99.90;;;;;;5052257;28;20048;-81
2022/06/09 09:32:09;;;;;;;0.00;0.00;;;19.80;99.90;;;;;;5035906;28;20048;-81
2022/06/09 09:34:39;;;;;;;0.10;0.10;;;19.90;99.90;;;;;;5052454;28;20504;-81
2022/06/09 09:37:18;;;;;;;1.20;0.43;;;19.80;99.90;;;;;;5052367;28;20056;-82
2022/06/09 09:39:50;;;;;;;0.08;0.08;;;19.80;99.90;;;;;;5053196;28;20393;-82
2022/06/09 09:42:24;;;;;;;0.00;0.00;;;20.00;99.90;;;;;;5035852;28;20442;-81
2022/06/09 09:45:30;;;;;;;0.00;0.00;;;20.30;99.90;;;;;;5052598;28;20346;-81
2022/06/09 09:47:59;;;;;;;0.20;0.20;;;20.50;99.90;;;;;;4995279;28;20100;-81
2022/06/09 09:50:46;;;;;;;0.00;0.00;;;20.70;99.90;;;;;;4979508;28;20058;-81
2022/06/09 09:53:32;;;;;;;2.17;0.55;;;20.80;99.90;;;;;;4979415;28;20141;-81
2022/06/09 09:56:23;;;;;;;0.00;0.00;;;20.90;99.90;;;;;;4995168;28;20401;-81
2022/06/09 09:58:49;;;;;;;0.60;0.35;;;21.10;99.90;;;;;;4997679;28;20073;-81
2022/06/09 10:01:14;;;;;;;0.00;0.00;;;21.00;99.90;;;;;;4982797;28;20395;-82
2022/06/09 10:09:41;;;;;;;0.00;0.00;;;21.30;99.90;;;;;;4998559;28;20497;-81
2022/06/09 10:12:09;;;;;;;0.00;0.00;;;21.30;99.90;;;;;;4983412;28;20089;-81
2022/06/09 10:15:03;;;;;;;0.63;0.10;;;21.30;99.90;;;;;;4982482;28;20538;-81
2022/06/09 10:17:33;;;;;;;0.00;0.00;;;21.40;99.90;;;;;;4982190;28;20062;-81
2022/06/09 10:20:06;;;;;;;0.00;0.00;;;21.50;99.90;;;;;;4998640;28;20061;-82
2022/06/09 10:22:36;;;;;;;0.00;0.00;;;21.50;99.90;;;;;;4988809;28;20057;-81
2022/06/09 10:25:18;;;;;;;0.00;0.00;;;21.60;99.90;;;;;;5055672;28;20056;-82
2022/06/09 10:27:48;;;;;;;0.00;0.00;;;21.70;99.90;;;;;;5039252;28;20191;-81
2022/06/09 10:30:20;;;;;;;0.00;0.00;;;21.80;99.90;;;;;;5056218;28;20094;-88
2022/06/09 10:32:55;;;;;;;0.00;0.00;;;21.80;99.90;;;;;;5055964;28;20388;-82
2022/06/09 10:35:42;;;;;;;0.00;0.00;;;21.70;99.90;;;;;;5055888;28;20049;-82
2022/06/09 10:38:27;;;;;;;0.00;0.00;;;21.60;99.90;;;;;;5056410;28;20129;-82
2022/06/09 10:40:56;;;;;;;;;;;21.50;99.90;;;;;;5056248;28;20045;-82
2022/06/09 10:43:34;;;;;;;0.08;0.00;;;21.70;99.90;;;;;;5039015;28;19962;-82
2022/06/09 10:46:26;;;;;;;0.08;0.08;;;21.70;99.90;;;;;;5055420;28;20493;-82
2022/06/09 10:55:26;;;;;;;0.00;0.00;;;21.90;99.90;;;;;;5055268;28;20404;-81
2022/06/09 10:58:04;;;;;;;3.20;0.38;;;22.10;99.90;;;;;;5055348;28;20060;-82
2022/06/09 11:00:36;;;;;;;0.00;0.00;;;22.20;99.90;;;;;;5055983;28;20060;-81
2022/06/09 11:03:21;;;;;;;0.00;0.00;;;22.20;99.90;;;;;;5055064;28;20049;-82
2022/06/09 11:06:11;;;;;;;0.00;0.00;;;22.30;99.90;;;;;;5053973;28;20078;-82
2022/06/09 11:08:46;;;;;;;0.00;0.00;;;22.20;99.90;;;;;;5037847;28;20045;-82
2022/06/09 11:11:11;;;;;;;;;;;22.30;99.90;;;;;;5037028;28;20496;-83
2022/06/09 11:14:13;;;;;;;0.00;0.00;;;22.40;99.90;;;;;;5038150;28;19959;-82
2022/06/09 11:17:05;;;;;;;0.00;0.00;;;22.30;99.90;;;;;;4997804;28;20054;-82
2022/06/09 11:20:01;;;;;;;0.00;0.00;;;22.40;99.90;;;;;;4980840;28;20038;-82
2022/06/09 11:22:40;;;;;;;0.10;0.05;;;22.50;99.90;;;;;;4981703;28;20054;-82
2022/06/09 11:25:42;;;;;;;0.00;0.00;;;22.50;99.70;;;;;;4981656;28;20161;-82
2022/06/09 11:28:36;;;;;;;0.00;0.00;;;22.60;99.50;;;;;;4981074;28;20116;-82
2022/06/09 11:31:35;;;;;;;0.00;0.00;;;22.70;99.90;;;;;;4981363;28;20057;-82
2022/06/09 11:34:20;;;;;;;0.00;0.00;;;22.70;99.90;;;;;;4981036;28;20069;-81
2022/06/09 11:36:49;;;;;;;0.00;0.00;;;22.60;95.40;;;;;;4997525;28;20042;-82
2022/06/09 11:39:20;;;;;;;0.00;0.00;;;22.50;98.30;;;;;;4997590;28;20046;-81
2022/06/09 11:42:02;;;;;;;0.00;0.00;;;22.60;97.00;;;;;;4981149;28;20058;-82
2022/06/09 11:44:35;;;;;;;0.88;0.35;;;22.60;94.80;;;;;;4980984;28;20081;-81
2022/06/09 11:47:05;;;;;;;0.00;0.00;;;22.30;96.20;;;;;;4980991;28;20100;-82
2022/06/09 11:49:36;;;;;;;0.00;0.00;;;22.10;96.80;;;;;;4996651;28;20506;-82
2022/06/09 11:52:08;;;;;;;1.40;0.20;;;21.70;94.60;;;;;;4980661;28;20140;-82
2022/06/09 11:54:39;;;;;;;0.00;0.00;;;21.70;98.40;;;;;;5027985;28;20056;-82
2022/06/09 11:57:25;;;;;;;0.75;0.22;;;21.70;98.00;;;;;;5053891;28;20145;-82
2022/06/09 11:59:53;;;;;;;0.00;0.00;;;22.00;99.90;;;;;;5037822;28;20045;-82
2022/06/09 12:02:36;;;;;;;0.22;0.22;;;22.20;99.40;;;;;;5053542;28;20472;-82
2022/06/09 12:05:17;;;;;;;3.63;0.20;;;22.30;98.50;;;;;;5053536;28;20064;-83
2022/06/09 12:08:08;;;;;;;0.00;0.00;;;22.40;97.90;;;;;;5036990;28;20052;-83
2022/06/09 12:11:07;;;;;;;0.00;0.00;;;22.40;97.20;;;;;;5054102;28;20040;-82
2022/06/09 12:13:59;;;;;;;0.00;0.00;;;22.30;98.80;;;;;;5053795;28;20485;-83
2022/06/09 12:16:35;;;;;;;0.00;0.00;;;22.40;98.60;;;;;;5053562;28;20060;-82
2022/06/09 12:19:16;;;;;;;0.65;0.10;;;22.60;98.20;;;;;;5037122;28;20092;-82
2022/06/09 12:21:55;;;;;;;0.22;0.10;;;22.80;99.50;;;;;;5053272;28;20064;-82
2022/06/09 12:24:34;;;;;;;0.00;0.00;;;23.00;98.60;;;;;;5053622;28;20053;-82
2022/06/09 12:27:37;;;;;;;0.10;0.10;;;23.10;98.50;;;;;;5053290;28;20084;-83
2022/06/09 12:30:02;;;;;;;0.00;0.00;;;23.10;97.70;;;;;;4979606;28;20107;-82
2022/06/09 12:32:48;;;;;;;0.00;0.00;;;23.10;96.00;;;;;;4996357;28;20053;-82
2022/06/09 12:35:22;;;;;;;0.00;0.00;;;22.80;96.10;;;;;;4979901;28;20112;-82
2022/06/09 12:37:57;;;;;;;0.17;0.15;;;22.90;97.30;;;;;;4996497;28;20053;-83
2022/06/09 12:40:31;;;;;;;0.00;0.00;;;23.00;99.10;;;;;;4996152;28;20145;-83
2022/06/09 12:43:01;;;;;;;0.03;0.03;;;22.90;98.70;;;;;;4996260;28;20394;-83
2022/06/09 12:45:28;;;;;;;0.00;0.00;;;22.70;97.60;;;;;;4996316;28;20046;-82
2022/06/09 12:48:09;;;;;;;3.38;0.38;;;22.50;95.90;;;;;;4979737;28;20115;-83
2022/06/09 12:50:52;;;;;;;0.10;0.10;;;22.50;97.40;;;;;;4996207;28;20149;-82
2022/06/09 12:53:23;;;;;;;0.00;0.00;;;22.20;96.50;;;;;;4979890;28;20057;-83
2022/06/09 12:55:55;;;;;;;0.90;0.35;;;22.40;98.40;;;;;;4995882;28;20081;-82
2022/06/09 12:58:33;;;;;;;0.00;0.00;;;22.40;97.80;;;;;;4979923;28;20061;-82
2022/06/09 13:01:04;;;;;;;0.28;0.10;;;22.50;98.20;;;;;;4979726;28;20093;-82
2022/06/09 13:03:40;;;;;;;0.52;0.40;;;22.70;96.80;;;;;;4995873;28;20046;-82
2022/06/09 13:06:27;;;;;;;0.00;0.00;;;22.80;97.30;;;;;;4982283;28;20054;-82
2022/06/09 13:08:56;;;;;;;0.00;0.00;;;22.90;95.70;;;;;;5036465;28;20555;-82
2022/06/09 13:14:20;;;;;;;0.38;0.38;;;23.00;95.70;;;;;;5053487;28;20143;-82
2022/06/09 13:16:50;;;;;;;0.10;0.10;;;23.00;93.30;;;;;;5052951;28;20492;-82
2022/06/09 13:19:20;;;;;;;0.00;0.00;;;23.10;94.30;;;;;;5052945;28;20052;-82
2022/06/09 13:21:48;;;;;;;0.00;0.00;;;23.10;93.60;;;;;;5035804;28;20053;-82
2022/06/09 13:24:30;;;;;;;0.00;0.00;;;23.10;94.70;;;;;;5052640;28;20059;-81
2022/06/09 13:26:56;;;;;;;0.00;0.00;;;23.10;93.90;;;;;;5053186;28;20048;-82
2022/06/09 13:30:05;;;;;;;0.08;0.00;;;23.20;93.60;;;;;;5052277;28;20041;-82
2022/06/09 13:32:43;;;;;;;0.00;0.00;;;23.00;91.80;;;;;;4979524;28;20050;-82